createdAt,value
2022-09-24T00:02:22.983Z,64.88
2022-09-24T00:06:26.198Z,65.21
2022-09-24T00:10:29.108Z,65.53
2022-09-24T00:14:33.532Z,65.52
2022-09-24T00:18:37.007Z,65.43
2022-09-24T00:22:39.862Z,65.38
2022-09-24T00:26:51.838Z,65.72
2022-09-24T00:30:58.408Z,65.59
2022-09-24T00:35:01.380Z,65.81
2022-09-24T00:39:05.409Z,66.11
2022-09-24T00:43:31.009Z,66.29
2022-09-24T00:47:38.832Z,66.31
2022-09-24T00:51:43.853Z,66.10
2022-09-24T00:55:51.853Z,66.34
2022-09-24T00:59:55.425Z,66.73
2022-09-24T01:04:01.633Z,66.76
2022-09-24T01:08:05.127Z,66.70
2022-09-24T01:12:15.612Z,67.22
2022-09-24T01:16:27.906Z,66.98
2022-09-24T01:20:58.615Z,66.96
2022-09-24T01:25:04.800Z,67.00
2022-09-24T01:29:31.373Z,67.08
2022-09-24T01:33:37.329Z,67.13
2022-09-24T01:37:44.550Z,66.99
2022-09-24T01:41:50.107Z,67.11
2022-09-24T01:45:56.163Z,67.52
2022-09-24T01:49:59.267Z,67.65
2022-09-24T01:54:05.379Z,67.52
2022-09-24T01:58:11.796Z,67.60
2022-09-24T02:02:23.218Z,68.06
2022-09-24T02:06:32.061Z,67.77
2022-09-24T02:10:41.365Z,67.87
2022-09-24T02:14:49.826Z,67.95
2022-09-24T02:18:58.046Z,67.67
2022-09-24T02:23:01.632Z,67.96
2022-09-24T02:27:04.800Z,68.13
2022-09-24T02:31:13.133Z,68.36
2022-09-24T02:35:18.350Z,68.34
2022-09-24T02:39:21.968Z,68.28
2022-09-24T02:43:26.024Z,68.14
2022-09-24T02:47:29.519Z,68.49
2022-09-24T02:51:33.819Z,68.48
2022-09-24T02:55:36.917Z,68.69
2022-09-24T02:59:40.192Z,68.76
2022-09-24T03:03:43.609Z,68.84
2022-09-24T03:07:48.075Z,69.07
2022-09-24T03:11:51.234Z,68.97
2022-09-24T03:15:54.584Z,69.14
2022-09-24T03:19:57.775Z,69.13
2022-09-24T03:24:02.424Z,69.24
2022-09-24T03:28:05.523Z,69.16
2022-09-24T03:32:08.593Z,69.36
2022-09-24T03:36:13.839Z,69.49
2022-09-24T03:40:18.470Z,69.68
2022-09-24T03:44:21.413Z,69.84
2022-09-24T03:48:25.715Z,69.78
2022-09-24T03:52:28.994Z,69.86
2022-09-24T03:56:33.449Z,70.07
2022-09-24T04:00:40.339Z,70.09
2022-09-24T04:04:44.133Z,70.04
2022-09-24T04:08:47.528Z,69.65
2022-09-24T04:12:52.250Z,69.93
2022-09-24T04:16:55.120Z,70.33
2022-09-24T04:21:00.015Z,70.44
2022-09-24T04:25:03.318Z,70.32
2022-09-24T04:29:08.070Z,70.25
2022-09-24T04:33:11.824Z,70.22
2022-09-24T04:37:14.886Z,70.17
2022-09-24T04:41:18.448Z,70.26
2022-09-24T04:45:24.930Z,70.27
2022-09-24T04:49:29.642Z,70.30
2022-09-24T04:53:32.823Z,70.26
2022-09-24T04:57:36.355Z,70.50
2022-09-24T05:01:41.069Z,70.66
2022-09-24T05:05:47.201Z,70.80
2022-09-24T05:09:50.367Z,71.04
2022-09-24T05:13:53.606Z,71.29
2022-09-24T05:17:58.037Z,71.08
2022-09-24T05:22:00.955Z,71.10
2022-09-24T05:26:21.298Z,71.20
2022-09-24T05:30:26.174Z,71.46
2022-09-24T05:34:31.149Z,71.24
2022-09-24T05:38:34.055Z,71.26
2022-09-24T05:42:37.425Z,71.54
2022-09-24T05:46:40.681Z,71.71
2022-09-24T05:50:45.284Z,72.06
2022-09-24T05:54:48.111Z,72.33
2022-09-24T05:58:51.561Z,72.34
2022-09-24T06:02:54.443Z,72.38
2022-09-24T06:06:58.810Z,72.09
2022-09-24T06:11:05.461Z,72.09
2022-09-24T06:15:09.479Z,71.79
2022-09-24T06:19:12.756Z,72.02
2022-09-24T06:23:17.209Z,71.92
2022-09-24T06:27:20.293Z,71.81
2022-09-24T06:31:23.412Z,71.53
2022-09-24T06:35:26.293Z,71.54
2022-09-24T06:39:30.537Z,71.24
2022-09-24T06:43:34.567Z,71.16
2022-09-24T06:47:37.465Z,71.42
2022-09-24T06:51:40.905Z,71.11
2022-09-24T06:55:46.943Z,70.62
2022-09-24T06:59:51.384Z,70.34
2022-09-24T07:03:54.451Z,70.24
2022-09-24T07:07:57.517Z,69.84
2022-09-24T07:12:05.359Z,69.92
2022-09-24T07:16:08.438Z,69.64
2022-09-24T07:20:11.577Z,69.57
2022-09-24T07:24:14.468Z,69.25
2022-09-24T07:28:19.659Z,69.33
2022-09-24T07:32:27.444Z,69.18
2022-09-24T07:36:32.733Z,68.30
2022-09-24T07:40:36.121Z,68.58
2022-09-24T07:44:40.462Z,68.12
2022-09-24T07:48:43.541Z,68.16
2022-09-24T07:52:51.694Z,67.70
2022-09-24T07:56:54.784Z,66.89
2022-09-24T08:01:00.577Z,67.23
2022-09-24T08:05:03.982Z,67.10
2022-09-24T08:09:08.109Z,66.91
2022-09-24T08:13:11.180Z,66.77
2022-09-24T08:17:15.676Z,66.22
2022-09-24T08:21:18.555Z,66.66
2022-09-24T08:25:21.587Z,65.86
2022-09-24T08:29:24.741Z,65.39
2022-09-24T08:33:29.688Z,65.41
2022-09-24T08:37:32.773Z,65.26
2022-09-24T08:41:57.145Z,65.04
2022-09-24T08:46:21.330Z,64.91
2022-09-24T08:50:28.402Z,64.72
2022-09-24T08:54:35.218Z,65.02
2022-09-24T08:58:45.631Z,64.24
2022-09-24T09:02:56.570Z,64.14
2022-09-24T09:07:14.388Z,63.85
2022-09-24T09:11:21.454Z,63.54
2022-09-24T09:15:28.270Z,63.71
2022-09-24T09:19:35.501Z,63.04
2022-09-24T09:23:47.483Z,63.21
2022-09-24T09:27:59.675Z,62.96
2022-09-24T09:32:11.022Z,63.08
2022-09-24T09:36:37.129Z,62.62
2022-09-24T09:40:46.123Z,62.29
2022-09-24T09:44:49.419Z,61.95
2022-09-24T09:48:55.904Z,61.72
2022-09-24T09:52:58.820Z,61.99
2022-09-24T09:57:04.374Z,61.77
2022-09-24T10:01:10.388Z,61.04
2022-09-24T10:05:26.987Z,60.88
2022-09-24T10:09:30.508Z,60.79
2022-09-24T10:13:35.241Z,60.63
2022-09-24T10:17:40.084Z,60.43
2022-09-24T10:21:43.333Z,60.47
2022-09-24T10:25:52.174Z,60.41
2022-09-24T10:30:15.208Z,60.06
2022-09-24T10:34:26.650Z,60.04
2022-09-24T10:38:31.344Z,60.08
2022-09-24T10:42:34.279Z,60.17
2022-09-24T10:47:00.719Z,59.74
2022-09-24T10:51:13.701Z,59.44
2022-09-24T10:55:27.231Z,59.13
2022-09-24T10:59:51.270Z,59.24
2022-09-24T11:04:23.346Z,59.33
2022-09-24T11:08:35.741Z,59.05
2022-09-24T11:12:50.120Z,58.97
2022-09-24T11:17:08.483Z,59.20
2022-09-24T11:21:28.577Z,59.20
2022-09-24T11:25:40.755Z,59.31
2022-09-24T11:29:59.713Z,59.06
2022-09-24T11:34:29.099Z,59.30
2022-09-24T11:38:45.462Z,58.99
2022-09-24T11:43:00.197Z,58.86
2022-09-24T11:47:17.719Z,58.71
2022-09-24T11:51:33.070Z,58.48
2022-09-24T11:55:44.263Z,58.94
2022-09-24T11:59:54.912Z,58.46
2022-09-24T12:04:04.042Z,58.49
2022-09-24T12:08:14.694Z,58.26
2022-09-24T12:12:24.188Z,58.32
2022-09-24T12:16:30.083Z,58.09
2022-09-24T12:20:37.834Z,57.79
2022-09-24T12:24:46.274Z,57.53
2022-09-24T12:29:14.110Z,57.80
2022-09-24T12:33:21.110Z,57.31
2022-09-24T12:37:32.581Z,57.21
2022-09-24T12:41:38.202Z,56.88
2022-09-24T12:45:42.825Z,56.86
2022-09-24T12:49:51.660Z,56.67
2022-09-24T12:54:01.162Z,56.87
2022-09-24T12:58:06.983Z,56.71
2022-09-24T13:02:19.012Z,56.13
2022-09-24T13:06:32.292Z,56.07
2022-09-24T13:10:36.629Z,56.36
2022-09-24T13:14:43.343Z,55.72
2022-09-24T13:18:55.312Z,55.73
2022-09-24T13:23:00.093Z,55.84
2022-09-24T13:27:21.994Z,55.62
2022-09-24T13:31:31.123Z,55.63
2022-09-24T13:35:44.398Z,55.00
2022-09-24T13:39:52.559Z,54.83
2022-09-24T13:44:01.399Z,55.44
2022-09-24T13:48:06.771Z,55.25
2022-09-24T13:52:17.966Z,55.34
2022-09-24T13:56:21.484Z,55.55
2022-09-24T14:00:27.651Z,55.69
2022-09-24T14:04:31.673Z,55.42
2022-09-24T14:08:38.618Z,55.23
2022-09-24T14:12:42.010Z,55.43
2022-09-24T14:16:45.011Z,55.75
2022-09-24T14:20:54.014Z,55.89
2022-09-24T14:25:03.424Z,55.78
2022-09-24T14:29:10.062Z,55.34
2022-09-24T14:33:18.012Z,55.59
2022-09-24T14:37:24.290Z,55.29
2022-09-24T14:41:32.094Z,55.74
2022-09-24T14:45:38.368Z,55.75
2022-09-24T14:49:46.242Z,55.85
2022-09-24T14:53:58.827Z,56.18
2022-09-24T14:58:03.147Z,56.05
2022-09-24T15:02:17.318Z,56.46
2022-09-24T15:06:23.775Z,56.09
2022-09-24T15:10:26.919Z,56.25
2022-09-24T15:14:34.582Z,56.60
2022-09-24T15:18:37.756Z,57.04
2022-09-24T15:22:40.967Z,56.78
2022-09-24T15:26:45.767Z,56.66
2022-09-24T15:30:50.151Z,56.76
2022-09-24T15:34:53.962Z,56.86
2022-09-24T15:39:03.370Z,57.28
2022-09-24T15:43:13.843Z,57.38
2022-09-24T15:47:19.230Z,57.25
2022-09-24T15:51:23.431Z,57.34
2022-09-24T15:55:26.561Z,57.54
2022-09-24T15:59:29.765Z,58.09
2022-09-24T16:03:34.332Z,58.29
2022-09-24T16:07:37.523Z,58.37
2022-09-24T16:11:40.713Z,58.33
2022-09-24T16:15:44.444Z,58.68
2022-09-24T16:19:48.837Z,59.01
2022-09-24T16:23:55.396Z,59.25
2022-09-24T16:27:58.919Z,59.45
2022-09-24T16:32:02.252Z,59.82
2022-09-24T16:36:08.019Z,60.59
2022-09-24T16:40:12.140Z,60.63
2022-09-24T16:44:15.657Z,60.86
2022-09-24T16:48:19.253Z,61.17
2022-09-24T16:52:23.839Z,61.54
2022-09-24T16:56:26.933Z,61.76
2022-09-24T17:00:30.063Z,62.14
2022-09-24T17:04:34.364Z,62.57
2022-09-24T17:08:56.673Z,62.77
2022-09-24T17:13:01.095Z,63.03
2022-09-24T17:17:04.124Z,63.20
2022-09-24T17:21:09.737Z,63.17
2022-09-24T17:25:14.119Z,63.42
2022-09-24T17:29:20.535Z,63.98
2022-09-24T17:33:42.345Z,64.33
2022-09-24T17:37:46.833Z,64.69
2022-09-24T17:41:51.231Z,64.80
2022-09-24T17:45:58.252Z,64.66
2022-09-24T17:50:01.591Z,64.25
2022-09-24T17:54:08.128Z,64.24
2022-09-24T17:58:12.479Z,64.36
2022-09-24T18:02:15.559Z,64.41
2022-09-24T18:06:18.574Z,64.33
2022-09-24T18:10:21.603Z,64.35
2022-09-24T18:14:26.172Z,64.24
2022-09-24T18:18:29.178Z,64.77
2022-09-24T18:22:32.376Z,65.07
2022-09-24T18:26:37.523Z,65.27
2022-09-24T18:30:41.905Z,65.30
2022-09-24T18:34:45.271Z,65.71
2022-09-24T18:38:49.473Z,65.75
2022-09-24T18:42:52.725Z,65.88
2022-09-24T18:46:57.267Z,66.08
2022-09-24T18:51:00.943Z,66.17
2022-09-24T18:55:04.114Z,66.42
2022-09-24T18:59:09.972Z,66.69
2022-09-24T19:03:14.557Z,66.78
2022-09-24T19:07:17.578Z,66.90
2022-09-24T19:11:21.506Z,67.12
2022-09-24T19:15:25.129Z,66.86
2022-09-24T19:19:29.729Z,67.03
2022-09-24T19:23:32.763Z,67.03
2022-09-24T19:27:35.724Z,66.99
2022-09-24T19:31:40.850Z,67.19
2022-09-24T19:35:54.344Z,67.54
2022-09-24T19:39:57.623Z,67.53
2022-09-24T19:44:11.175Z,67.55
2022-09-24T19:48:14.405Z,67.57
2022-09-24T19:52:19.125Z,67.65
2022-09-24T19:56:25.380Z,67.67
2022-09-24T20:00:28.779Z,67.70
2022-09-24T20:04:33.858Z,67.75
2022-09-24T20:08:38.747Z,67.88
2022-09-24T20:12:46.563Z,67.89
2022-09-24T20:16:49.679Z,67.72
2022-09-24T20:20:54.375Z,67.94
2022-09-24T20:24:59.093Z,67.99
2022-09-24T20:29:03.289Z,68.24
2022-09-24T20:33:10.213Z,68.04
2022-09-24T20:37:14.485Z,68.54
2022-09-24T20:41:20.622Z,68.63
2022-09-24T20:45:24.107Z,68.55
2022-09-24T20:49:28.138Z,68.62
2022-09-24T20:53:31.383Z,68.74
2022-09-24T20:57:35.968Z,68.66
2022-09-24T21:01:39.640Z,69.07
2022-09-24T21:05:43.502Z,69.60
2022-09-24T21:09:46.521Z,70.00
2022-09-24T21:14:17.836Z,70.27
2022-09-24T21:18:23.230Z,70.19
2022-09-24T21:22:27.212Z,70.24
2022-09-24T21:26:32.127Z,70.34
2022-09-24T21:30:36.743Z,70.70
2022-09-24T21:34:40.173Z,70.42
2022-09-24T21:38:43.351Z,70.71
2022-09-24T21:42:47.149Z,70.76
2022-09-24T21:46:52.608Z,71.09
2022-09-24T21:51:02.558Z,71.13
2022-09-24T21:55:06.432Z,71.56
2022-09-24T21:59:23.883Z,71.35
2022-09-24T22:03:28.535Z,71.42
2022-09-24T22:07:31.607Z,71.49
2022-09-24T22:11:35.086Z,71.20
2022-09-24T22:15:38.405Z,71.35
2022-09-24T22:19:42.939Z,71.66
2022-09-24T22:23:45.914Z,71.52
2022-09-24T22:27:49.536Z,71.55
2022-09-24T22:31:52.596Z,71.57
2022-09-24T22:35:58.374Z,71.79
2022-09-24T22:40:02.264Z,72.26
2022-09-24T22:44:05.435Z,72.21
2022-09-24T22:48:08.664Z,72.62
2022-09-24T22:52:13.077Z,72.47
2022-09-24T22:56:18.196Z,72.78
2022-09-24T23:00:21.458Z,72.77
2022-09-24T23:04:24.503Z,72.95
2022-09-24T23:08:33.342Z,73.21
2022-09-24T23:12:36.936Z,73.05
2022-09-24T23:16:40.067Z,73.15
2022-09-24T23:20:43.873Z,72.89
2022-09-24T23:24:50.467Z,73.26
2022-09-24T23:28:55.328Z,73.11
2022-09-24T23:32:59.022Z,73.07
2022-09-24T23:37:02.003Z,72.74
2022-09-24T23:41:07.406Z,72.92
2022-09-24T23:45:11.284Z,72.98
2022-09-24T23:49:14.764Z,73.17
2022-09-24T23:53:18.845Z,73.34
2022-09-24T23:57:23.188Z,73.39
